sensor_id;sensor_type;location;lat;lon;timestamp;pressure;altitude;pressure_sealevel;temperature
20289;BMP180;10303;51.960;8.372;2024-03-07T00:00:08;101474.00;;;8.50
20289;BMP180;10303;51.960;8.372;2024-03-07T00:02:45;101468.00;;;8.50
20289;BMP180;10303;51.960;8.372;2024-03-07T00:05:11;101472.00;;;8.40
20289;BMP180;10303;51.960;8.372;2024-03-07T00:07:42;101474.00;;;8.40
20289;BMP180;10303;51.960;8.372;2024-03-07T00:10:09;101472.00;;;8.40
20289;BMP180;10303;51.960;8.372;2024-03-07T00:12:37;101475.00;;;8.30
20289;BMP180;10303;51.960;8.372;2024-03-07T00:15:11;101467.00;;;8.20
20289;BMP180;10303;51.960;8.372;2024-03-07T00:17:38;101475.00;;;8.20
20289;BMP180;10303;51.960;8.372;2024-03-07T00:20:05;101480.00;;;8.20
20289;BMP180;10303;51.960;8.372;2024-03-07T00:22:36;101471.00;;;8.10
20289;BMP180;10303;51.960;8.372;2024-03-07T00:25:04;101470.00;;;8.10
20289;BMP180;10303;51.960;8.372;2024-03-07T00:27:37;101480.00;;;8.00
20289;BMP180;10303;51.960;8.372;2024-03-07T00:30:07;101478.00;;;8.00
20289;BMP180;10303;51.960;8.372;2024-03-07T00:32:39;101476.00;;;7.90
20289;BMP180;10303;51.960;8.372;2024-03-07T00:35:08;101469.00;;;7.90
20289;BMP180;10303;51.960;8.372;2024-03-07T00:37:35;101479.00;;;7.80
20289;BMP180;10303;51.960;8.372;2024-03-07T00:40:02;101462.00;;;7.80
20289;BMP180;10303;51.960;8.372;2024-03-07T00:42:28;101468.00;;;7.70
20289;BMP180;10303;51.960;8.372;2024-03-07T00:44:55;101473.00;;;7.70
20289;BMP180;10303;51.960;8.372;2024-03-07T00:47:22;101469.00;;;7.70
20289;BMP180;10303;51.960;8.372;2024-03-07T00:49:48;101469.00;;;7.60
20289;BMP180;10303;51.960;8.372;2024-03-07T00:52:15;101477.00;;;7.60
20289;BMP180;10303;51.960;8.372;2024-03-07T00:54:42;101469.00;;;7.50
20289;BMP180;10303;51.960;8.372;2024-03-07T00:57:08;101459.00;;;7.50
20289;BMP180;10303;51.960;8.372;2024-03-07T00:59:34;101462.00;;;7.50
20289;BMP180;10303;51.960;8.372;2024-03-07T01:02:01;101473.00;;;7.40
20289;BMP180;10303;51.960;8.372;2024-03-07T01:04:27;101463.00;;;7.40
20289;BMP180;10303;51.960;8.372;2024-03-07T01:07:00;101473.00;;;7.30
20289;BMP180;10303;51.960;8.372;2024-03-07T01:09:26;101467.00;;;7.30
20289;BMP180;10303;51.960;8.372;2024-03-07T01:11:54;101466.00;;;7.30
20289;BMP180;10303;51.960;8.372;2024-03-07T01:14:21;101466.00;;;7.20
20289;BMP180;10303;51.960;8.372;2024-03-07T01:16:48;101471.00;;;7.20
20289;BMP180;10303;51.960;8.372;2024-03-07T01:19:14;101466.00;;;7.20
20289;BMP180;10303;51.960;8.372;2024-03-07T01:21:40;101469.00;;;7.10
20289;BMP180;10303;51.960;8.372;2024-03-07T01:24:06;101463.00;;;7.10
20289;BMP180;10303;51.960;8.372;2024-03-07T01:26:32;101458.00;;;7.10
20289;BMP180;10303;51.960;8.372;2024-03-07T01:29:02;101451.00;;;7.00
20289;BMP180;10303;51.960;8.372;2024-03-07T01:31:28;101451.00;;;7.00
20289;BMP180;10303;51.960;8.372;2024-03-07T01:33:54;101447.00;;;6.90
20289;BMP180;10303;51.960;8.372;2024-03-07T01:36:20;101447.00;;;6.90
20289;BMP180;10303;51.960;8.372;2024-03-07T01:38:46;101439.00;;;6.90
20289;BMP180;10303;51.960;8.372;2024-03-07T01:41:12;101451.00;;;6.90
20289;BMP180;10303;51.960;8.372;2024-03-07T01:43:41;101434.00;;;6.80
20289;BMP180;10303;51.960;8.372;2024-03-07T01:46:07;101434.00;;;6.80
20289;BMP180;10303;51.960;8.372;2024-03-07T01:48:34;101436.00;;;6.80
20289;BMP180;10303;51.960;8.372;2024-03-07T01:51:01;101436.00;;;6.70
20289;BMP180;10303;51.960;8.372;2024-03-07T01:53:30;101431.00;;;6.70
20289;BMP180;10303;51.960;8.372;2024-03-07T01:55:58;101440.00;;;6.70
20289;BMP180;10303;51.960;8.372;2024-03-07T01:58:24;101423.00;;;6.60
20289;BMP180;10303;51.960;8.372;2024-03-07T02:00:50;101421.00;;;6.60
20289;BMP180;10303;51.960;8.372;2024-03-07T02:03:17;101430.00;;;6.60
20289;BMP180;10303;51.960;8.372;2024-03-07T02:05:44;101421.00;;;6.50
20289;BMP180;10303;51.960;8.372;2024-03-07T02:08:11;101420.00;;;6.50
20289;BMP180;10303;51.960;8.372;2024-03-07T02:10:37;101418.00;;;6.50
20289;BMP180;10303;51.960;8.372;2024-03-07T02:13:04;101430.00;;;6.50
20289;BMP180;10303;51.960;8.372;2024-03-07T02:15:30;101398.00;;;6.40
20289;BMP180;10303;51.960;8.372;2024-03-07T02:17:56;101411.00;;;6.40
20289;BMP180;10303;51.960;8.372;2024-03-07T02:20:23;101415.00;;;6.40
20289;BMP180;10303;51.960;8.372;2024-03-07T02:22:49;101404.00;;;6.30
20289;BMP180;10303;51.960;8.372;2024-03-07T02:25:16;101408.00;;;6.30
20289;BMP180;10303;51.960;8.372;2024-03-07T02:27:42;101411.00;;;6.30
20289;BMP180;10303;51.960;8.372;2024-03-07T02:30:11;101414.00;;;6.20
20289;BMP180;10303;51.960;8.372;2024-03-07T02:32:38;101416.00;;;6.20
20289;BMP180;10303;51.960;8.372;2024-03-07T02:35:05;101404.00;;;6.10
20289;BMP180;10303;51.960;8.372;2024-03-07T02:37:31;101402.00;;;6.10
20289;BMP180;10303;51.960;8.372;2024-03-07T02:39:58;101403.00;;;6.10
20289;BMP180;10303;51.960;8.372;2024-03-07T02:42:24;101403.00;;;6.10
20289;BMP180;10303;51.960;8.372;2024-03-07T02:44:49;101400.00;;;6.00
20289;BMP180;10303;51.960;8.372;2024-03-07T02:47:15;101402.00;;;6.00
20289;BMP180;10303;51.960;8.372;2024-03-07T02:49:42;101394.00;;;6.00
20289;BMP180;10303;51.960;8.372;2024-03-07T02:52:08;101398.00;;;6.00
20289;BMP180;10303;51.960;8.372;2024-03-07T02:54:34;101395.00;;;6.00
20289;BMP180;10303;51.960;8.372;2024-03-07T02:57:01;101397.00;;;6.00
20289;BMP180;10303;51.960;8.372;2024-03-07T02:59:27;101394.00;;;5.90
20289;BMP180;10303;51.960;8.372;2024-03-07T03:01:53;101398.00;;;5.90
20289;BMP180;10303;51.960;8.372;2024-03-07T03:04:18;101396.00;;;5.90
20289;BMP180;10303;51.960;8.372;2024-03-07T03:06:45;101390.00;;;5.90
20289;BMP180;10303;51.960;8.372;2024-03-07T03:09:12;101392.00;;;5.90
20289;BMP180;10303;51.960;8.372;2024-03-07T03:11:44;101379.00;;;5.80
20289;BMP180;10303;51.960;8.372;2024-03-07T03:14:11;101377.00;;;5.80
20289;BMP180;10303;51.960;8.372;2024-03-07T03:16:42;101393.00;;;5.80
20289;BMP180;10303;51.960;8.372;2024-03-07T03:19:11;101403.00;;;5.80
20289;BMP180;10303;51.960;8.372;2024-03-07T03:21:37;101392.00;;;5.70
20289;BMP180;10303;51.960;8.372;2024-03-07T03:24:04;101384.00;;;5.70
20289;BMP180;10303;51.960;8.372;2024-03-07T03:26:30;101384.00;;;5.70
20289;BMP180;10303;51.960;8.372;2024-03-07T03:28:57;101377.00;;;5.70
20289;BMP180;10303;51.960;8.372;2024-03-07T03:31:24;101391.00;;;5.60
20289;BMP180;10303;51.960;8.372;2024-03-07T03:33:50;101389.00;;;5.60
20289;BMP180;10303;51.960;8.372;2024-03-07T03:36:16;101384.00;;;5.60
20289;BMP180;10303;51.960;8.372;2024-03-07T03:38:42;101395.00;;;5.50
20289;BMP180;10303;51.960;8.372;2024-03-07T03:41:08;101374.00;;;5.50
20289;BMP180;10303;51.960;8.372;2024-03-07T03:43:34;101369.00;;;5.50
20289;BMP180;10303;51.960;8.372;2024-03-07T03:46:00;101377.00;;;5.50
20289;BMP180;10303;51.960;8.372;2024-03-07T03:48:28;101377.00;;;5.40
20289;BMP180;10303;51.960;8.372;2024-03-07T03:50:54;101375.00;;;5.40
20289;BMP180;10303;51.960;8.372;2024-03-07T03:53:20;101378.00;;;5.40
20289;BMP180;10303;51.960;8.372;2024-03-07T03:55:46;101379.00;;;5.40
20289;BMP180;10303;51.960;8.372;2024-03-07T03:58:12;101378.00;;;5.40
20289;BMP180;10303;51.960;8.372;2024-03-07T04:00:38;101370.00;;;5.30
20289;BMP180;10303;51.960;8.372;2024-03-07T04:03:04;101371.00;;;5.30
20289;BMP180;10303;51.960;8.372;2024-03-07T04:05:30;101377.00;;;5.30
20289;BMP180;10303;51.960;8.372;2024-03-07T04:07:57;101370.00;;;5.30
20289;BMP180;10303;51.960;8.372;2024-03-07T04:10:24;101364.00;;;5.30
20289;BMP180;10303;51.960;8.372;2024-03-07T04:12:50;101368.00;;;5.30
20289;BMP180;10303;51.960;8.372;2024-03-07T04:15:17;101374.00;;;5.30
20289;BMP180;10303;51.960;8.372;2024-03-07T04:17:43;101373.00;;;5.20
20289;BMP180;10303;51.960;8.372;2024-03-07T04:20:12;101369.00;;;5.20
20289;BMP180;10303;51.960;8.372;2024-03-07T04:22:39;101370.00;;;5.20
20289;BMP180;10303;51.960;8.372;2024-03-07T04:25:07;101375.00;;;5.20
20289;BMP180;10303;51.960;8.372;2024-03-07T04:27:36;101363.00;;;5.10
20289;BMP180;10303;51.960;8.372;2024-03-07T04:30:04;101366.00;;;5.10
20289;BMP180;10303;51.960;8.372;2024-03-07T04:32:30;101365.00;;;5.10
20289;BMP180;10303;51.960;8.372;2024-03-07T04:34:57;101367.00;;;5.10
20289;BMP180;10303;51.960;8.372;2024-03-07T04:37:23;101363.00;;;5.10
20289;BMP180;10303;51.960;8.372;2024-03-07T04:39:49;101375.00;;;5.10
20289;BMP180;10303;51.960;8.372;2024-03-07T04:42:15;101368.00;;;5.10
20289;BMP180;10303;51.960;8.372;2024-03-07T04:44:41;101356.00;;;5.10
20289;BMP180;10303;51.960;8.372;2024-03-07T04:47:07;101362.00;;;5.10
20289;BMP180;10303;51.960;8.372;2024-03-07T04:49:34;101359.00;;;5.10
20289;BMP180;10303;51.960;8.372;2024-03-07T04:52:02;101370.00;;;5.10
20289;BMP180;10303;51.960;8.372;2024-03-07T04:54:30;101365.00;;;5.00
20289;BMP180;10303;51.960;8.372;2024-03-07T04:56:57;101370.00;;;5.00
20289;BMP180;10303;51.960;8.372;2024-03-07T04:59:23;101368.00;;;5.00
20289;BMP180;10303;51.960;8.372;2024-03-07T05:01:50;101364.00;;;5.00
20289;BMP180;10303;51.960;8.372;2024-03-07T05:04:17;101364.00;;;5.00
20289;BMP180;10303;51.960;8.372;2024-03-07T05:06:44;101363.00;;;5.00
20289;BMP180;10303;51.960;8.372;2024-03-07T05:09:14;101368.00;;;5.00
20289;BMP180;10303;51.960;8.372;2024-03-07T05:11:51;101374.00;;;5.00
20289;BMP180;10303;51.960;8.372;2024-03-07T05:14:18;101376.00;;;5.00
20289;BMP180;10303;51.960;8.372;2024-03-07T05:16:45;101374.00;;;5.00
20289;BMP180;10303;51.960;8.372;2024-03-07T05:19:11;101369.00;;;4.90
20289;BMP180;10303;51.960;8.372;2024-03-07T05:21:38;101378.00;;;4.90
20289;BMP180;10303;51.960;8.372;2024-03-07T05:24:07;101380.00;;;4.90
20289;BMP180;10303;51.960;8.372;2024-03-07T05:26:37;101381.00;;;4.90
20289;BMP180;10303;51.960;8.372;2024-03-07T05:29:09;101378.00;;;4.90
20289;BMP180;10303;51.960;8.372;2024-03-07T05:31:38;101375.00;;;4.90
20289;BMP180;10303;51.960;8.372;2024-03-07T05:34:05;101368.00;;;4.90
20289;BMP180;10303;51.960;8.372;2024-03-07T05:36:37;101368.00;;;4.90
20289;BMP180;10303;51.960;8.372;2024-03-07T05:39:11;101369.00;;;4.90
20289;BMP180;10303;51.960;8.372;2024-03-07T05:41:39;101371.00;;;4.90
20289;BMP180;10303;51.960;8.372;2024-03-07T05:44:05;101376.00;;;5.00
20289;BMP180;10303;51.960;8.372;2024-03-07T05:46:39;101374.00;;;5.00
20289;BMP180;10303;51.960;8.372;2024-03-07T05:49:16;101371.00;;;5.10
20289;BMP180;10303;51.960;8.372;2024-03-07T05:51:43;101384.00;;;5.20
20289;BMP180;10303;51.960;8.372;2024-03-07T05:54:13;101368.00;;;5.20
20289;BMP180;10303;51.960;8.372;2024-03-07T05:56:41;101376.00;;;5.20
20289;BMP180;10303;51.960;8.372;2024-03-07T05:59:08;101371.00;;;5.30
20289;BMP180;10303;51.960;8.372;2024-03-07T06:01:39;101386.00;;;5.30
20289;BMP180;10303;51.960;8.372;2024-03-07T06:04:06;101381.00;;;5.40
20289;BMP180;10303;51.960;8.372;2024-03-07T06:06:36;101383.00;;;5.40
20289;BMP180;10303;51.960;8.372;2024-03-07T06:09:08;101376.00;;;5.50
20289;BMP180;10303;51.960;8.372;2024-03-07T06:11:38;101372.00;;;5.50
20289;BMP180;10303;51.960;8.372;2024-03-07T06:14:06;101380.00;;;5.60
20289;BMP180;10303;51.960;8.372;2024-03-07T06:16:37;101385.00;;;5.60
20289;BMP180;10303;51.960;8.372;2024-03-07T06:19:05;101384.00;;;5.70
20289;BMP180;10303;51.960;8.372;2024-03-07T06:21:36;101378.00;;;5.70
20289;BMP180;10303;51.960;8.372;2024-03-07T06:24:03;101371.00;;;5.80
20289;BMP180;10303;51.960;8.372;2024-03-07T06:26:35;101385.00;;;5.80
20289;BMP180;10303;51.960;8.372;2024-03-07T06:29:07;101383.00;;;5.90
20289;BMP180;10303;51.960;8.372;2024-03-07T06:31:37;101386.00;;;6.00
20289;BMP180;10303;51.960;8.372;2024-03-07T06:34:03;101381.00;;;6.00
20289;BMP180;10303;51.960;8.372;2024-03-07T06:36:30;101380.00;;;6.10
20289;BMP180;10303;51.960;8.372;2024-03-07T06:38:56;101380.00;;;6.10
20289;BMP180;10303;51.960;8.372;2024-03-07T06:41:22;101393.00;;;6.20
20289;BMP180;10303;51.960;8.372;2024-03-07T06:43:48;101387.00;;;6.30
20289;BMP180;10303;51.960;8.372;2024-03-07T06:46:15;101385.00;;;6.30
20289;BMP180;10303;51.960;8.372;2024-03-07T06:48:42;101394.00;;;6.40
20289;BMP180;10303;51.960;8.372;2024-03-07T06:51:10;101392.00;;;6.40
20289;BMP180;10303;51.960;8.372;2024-03-07T06:53:36;101401.00;;;6.50
20289;BMP180;10303;51.960;8.372;2024-03-07T06:56:02;101391.00;;;6.60
20289;BMP180;10303;51.960;8.372;2024-03-07T06:58:28;101387.00;;;6.60
20289;BMP180;10303;51.960;8.372;2024-03-07T07:00:55;101386.00;;;6.70
20289;BMP180;10303;51.960;8.372;2024-03-07T07:03:21;101386.00;;;6.70
20289;BMP180;10303;51.960;8.372;2024-03-07T07:05:48;101392.00;;;6.70
20289;BMP180;10303;51.960;8.372;2024-03-07T07:08:14;101387.00;;;6.80
20289;BMP180;10303;51.960;8.372;2024-03-07T07:10:40;101393.00;;;6.90
20289;BMP180;10303;51.960;8.372;2024-03-07T07:13:07;101395.00;;;6.90
20289;BMP180;10303;51.960;8.372;2024-03-07T07:15:33;101397.00;;;6.90
20289;BMP180;10303;51.960;8.372;2024-03-07T07:17:59;101393.00;;;7.00
20289;BMP180;10303;51.960;8.372;2024-03-07T07:20:25;101398.00;;;7.00
20289;BMP180;10303;51.960;8.372;2024-03-07T07:22:51;101388.00;;;7.00
20289;BMP180;10303;51.960;8.372;2024-03-07T07:25:19;101396.00;;;7.10
20289;BMP180;10303;51.960;8.372;2024-03-07T07:27:50;101392.00;;;7.10
20289;BMP180;10303;51.960;8.372;2024-03-07T07:30:19;101393.00;;;7.10
20289;BMP180;10303;51.960;8.372;2024-03-07T07:32:45;101394.00;;;7.10
20289;BMP180;10303;51.960;8.372;2024-03-07T07:35:12;101394.00;;;7.20
20289;BMP180;10303;51.960;8.372;2024-03-07T07:37:46;101386.00;;;7.20
20289;BMP180;10303;51.960;8.372;2024-03-07T07:40:18;101394.00;;;7.20
20289;BMP180;10303;51.960;8.372;2024-03-07T07:42:45;101393.00;;;7.30
20289;BMP180;10303;51.960;8.372;2024-03-07T07:45:14;101417.00;;;7.30
20289;BMP180;10303;51.960;8.372;2024-03-07T07:47:52;101412.00;;;7.30
20289;BMP180;10303;51.960;8.372;2024-03-07T07:50:21;101414.00;;;7.30
20289;BMP180;10303;51.960;8.372;2024-03-07T07:52:50;101403.00;;;7.40
20289;BMP180;10303;51.960;8.372;2024-03-07T07:55:17;101415.00;;;7.50
20289;BMP180;10303;51.960;8.372;2024-03-07T07:57:58;101410.00;;;7.50
20289;BMP180;10303;51.960;8.372;2024-03-07T08:00:28;101402.00;;;7.50
20289;BMP180;10303;51.960;8.372;2024-03-07T08:02:58;101395.00;;;7.60
20289;BMP180;10303;51.960;8.372;2024-03-07T08:05:30;101397.00;;;7.60
20289;BMP180;10303;51.960;8.372;2024-03-07T08:08:00;101395.00;;;7.70
20289;BMP180;10303;51.960;8.372;2024-03-07T08:10:29;101388.00;;;7.70
20289;BMP180;10303;51.960;8.372;2024-03-07T08:12:59;101382.00;;;7.70
20289;BMP180;10303;51.960;8.372;2024-03-07T08:15:28;101371.00;;;7.80
20289;BMP180;10303;51.960;8.372;2024-03-07T08:17:55;101375.00;;;7.80
20289;BMP180;10303;51.960;8.372;2024-03-07T08:20:23;101371.00;;;7.80
20289;BMP180;10303;51.960;8.372;2024-03-07T08:22:50;101367.00;;;7.90
20289;BMP180;10303;51.960;8.372;2024-03-07T08:25:22;101356.00;;;7.90
20289;BMP180;10303;51.960;8.372;2024-03-07T08:27:50;101364.00;;;8.00
20289;BMP180;10303;51.960;8.372;2024-03-07T08:30:17;101366.00;;;8.00
20289;BMP180;10303;51.960;8.372;2024-03-07T08:32:55;101360.00;;;8.00
20289;BMP180;10303;51.960;8.372;2024-03-07T08:35:22;101357.00;;;8.10
20289;BMP180;10303;51.960;8.372;2024-03-07T08:37:50;101362.00;;;8.20
20289;BMP180;10303;51.960;8.372;2024-03-07T08:40:29;101356.00;;;8.20
20289;BMP180;10303;51.960;8.372;2024-03-07T08:43:01;101362.00;;;8.30
20289;BMP180;10303;51.960;8.372;2024-03-07T08:45:28;101361.00;;;8.30
20289;BMP180;10303;51.960;8.372;2024-03-07T08:47:56;101351.00;;;8.40
20289;BMP180;10303;51.960;8.372;2024-03-07T08:50:23;101349.00;;;8.40
20289;BMP180;10303;51.960;8.372;2024-03-07T08:52:50;101363.00;;;8.50
20289;BMP180;10303;51.960;8.372;2024-03-07T08:55:22;101367.00;;;8.60
20289;BMP180;10303;51.960;8.372;2024-03-07T08:57:48;101350.00;;;8.70
20289;BMP180;10303;51.960;8.372;2024-03-07T09:00:16;101364.00;;;8.70
20289;BMP180;10303;51.960;8.372;2024-03-07T09:02:56;101359.00;;;8.80
20289;BMP180;10303;51.960;8.372;2024-03-07T09:05:26;101358.00;;;8.90
20289;BMP180;10303;51.960;8.372;2024-03-07T09:07:54;101361.00;;;9.00
20289;BMP180;10303;51.960;8.372;2024-03-07T09:10:20;101352.00;;;9.10
20289;BMP180;10303;51.960;8.372;2024-03-07T09:12:49;101348.00;;;9.10
20289;BMP180;10303;51.960;8.372;2024-03-07T09:15:16;101351.00;;;9.20
20289;BMP180;10303;51.960;8.372;2024-03-07T09:17:43;101339.00;;;9.30
20289;BMP180;10303;51.960;8.372;2024-03-07T09:20:10;101344.00;;;9.30
20289;BMP180;10303;51.960;8.372;2024-03-07T09:22:47;101340.00;;;9.40
20289;BMP180;10303;51.960;8.372;2024-03-07T09:25:13;101346.00;;;9.50
20289;BMP180;10303;51.960;8.372;2024-03-07T09:27:40;101345.00;;;9.60
20289;BMP180;10303;51.960;8.372;2024-03-07T09:30:08;101343.00;;;9.70
20289;BMP180;10303;51.960;8.372;2024-03-07T09:32:46;101348.00;;;9.80
20289;BMP180;10303;51.960;8.372;2024-03-07T09:35:12;101346.00;;;9.90
20289;BMP180;10303;51.960;8.372;2024-03-07T09:37:43;101346.00;;;10.00
20289;BMP180;10303;51.960;8.372;2024-03-07T09:40:10;101359.00;;;10.10
20289;BMP180;10303;51.960;8.372;2024-03-07T09:42:48;101355.00;;;10.20
20289;BMP180;10303;51.960;8.372;2024-03-07T09:45:20;101344.00;;;10.30
20289;BMP180;10303;51.960;8.372;2024-03-07T09:47:50;101355.00;;;10.40
20289;BMP180;10303;51.960;8.372;2024-03-07T09:50:19;101363.00;;;10.40
20289;BMP180;10303;51.960;8.372;2024-03-07T09:52:49;101352.00;;;10.50
20289;BMP180;10303;51.960;8.372;2024-03-07T09:55:16;101349.00;;;10.60
20289;BMP180;10303;51.960;8.372;2024-03-07T09:57:46;101359.00;;;10.70
20289;BMP180;10303;51.960;8.372;2024-03-07T10:00:18;101352.00;;;10.80
20289;BMP180;10303;51.960;8.372;2024-03-07T10:03:12;101359.00;;;10.80
20289;BMP180;10303;51.960;8.372;2024-03-07T10:05:41;101366.00;;;11.00
20289;BMP180;10303;51.960;8.372;2024-03-07T10:08:08;101367.00;;;11.00
20289;BMP180;10303;51.960;8.372;2024-03-07T10:10:34;101358.00;;;11.10
20289;BMP180;10303;51.960;8.372;2024-03-07T10:12:59;101360.00;;;11.10
20289;BMP180;10303;51.960;8.372;2024-03-07T10:15:30;101363.00;;;11.20
20289;BMP180;10303;51.960;8.372;2024-03-07T10:17:56;101362.00;;;11.30
20289;BMP180;10303;51.960;8.372;2024-03-07T10:20:22;101355.00;;;11.30
20289;BMP180;10303;51.960;8.372;2024-03-07T10:22:50;101362.00;;;11.30
20289;BMP180;10303;51.960;8.372;2024-03-07T10:25:21;101362.00;;;11.40
20289;BMP180;10303;51.960;8.372;2024-03-07T10:27:51;101369.00;;;11.40
20289;BMP180;10303;51.960;8.372;2024-03-07T10:30:18;101367.00;;;11.40
20289;BMP180;10303;51.960;8.372;2024-03-07T10:32:48;101371.00;;;11.40
20289;BMP180;10303;51.960;8.372;2024-03-07T10:35:24;101372.00;;;11.40
20289;BMP180;10303;51.960;8.372;2024-03-07T10:37:54;101365.00;;;11.40
20289;BMP180;10303;51.960;8.372;2024-03-07T10:40:22;101368.00;;;11.40
20289;BMP180;10303;51.960;8.372;2024-03-07T10:42:49;101367.00;;;11.40
20289;BMP180;10303;51.960;8.372;2024-03-07T10:45:19;101367.00;;;11.50
20289;BMP180;10303;51.960;8.372;2024-03-07T10:47:56;101374.00;;;11.60
20289;BMP180;10303;51.960;8.372;2024-03-07T10:50:52;101369.00;;;11.80
20289;BMP180;10303;51.960;8.372;2024-03-07T10:59:16;101358.00;;;12.20
20289;BMP180;10303;51.960;8.372;2024-03-07T11:02:33;101360.00;;;12.30
20289;BMP180;10303;51.960;8.372;2024-03-07T11:05:04;101356.00;;;12.30
20289;BMP180;10303;51.960;8.372;2024-03-07T11:07:34;101359.00;;;12.40
20289;BMP180;10303;51.960;8.372;2024-03-07T11:10:04;101358.00;;;12.40
20289;BMP180;10303;51.960;8.372;2024-03-07T11:12:34;101359.00;;;12.40
20289;BMP180;10303;51.960;8.372;2024-03-07T11:15:01;101340.00;;;12.50
20289;BMP180;10303;51.960;8.372;2024-03-07T11:17:32;101344.00;;;12.70
20289;BMP180;10303;51.960;8.372;2024-03-07T11:20:22;101340.00;;;12.90
20289;BMP180;10303;51.960;8.372;2024-03-07T11:22:49;101344.00;;;13.10
20289;BMP180;10303;51.960;8.372;2024-03-07T11:25:19;101343.00;;;13.30
20289;BMP180;10303;51.960;8.372;2024-03-07T11:27:55;101338.00;;;13.60
20289;BMP180;10303;51.960;8.372;2024-03-07T11:30:22;101334.00;;;13.80
20289;BMP180;10303;51.960;8.372;2024-03-07T11:32:50;101334.00;;;14.00
20289;BMP180;10303;51.960;8.372;2024-03-07T11:35:32;101341.00;;;14.00
20289;BMP180;10303;51.960;8.372;2024-03-07T11:38:01;101336.00;;;14.00
20289;BMP180;10303;51.960;8.372;2024-03-07T11:42:56;101330.00;;;13.80
20289;BMP180;10303;51.960;8.372;2024-03-07T11:45:25;101335.00;;;13.80
20289;BMP180;10303;51.960;8.372;2024-03-07T11:47:55;101336.00;;;13.70
20289;BMP180;10303;51.960;8.372;2024-03-07T11:50:41;101324.00;;;13.60
20289;BMP180;10303;51.960;8.372;2024-03-07T11:53:09;101321.00;;;13.60
20289;BMP180;10303;51.960;8.372;2024-03-07T11:55:36;101323.00;;;13.60
20289;BMP180;10303;51.960;8.372;2024-03-07T11:58:19;101329.00;;;13.70
20289;BMP180;10303;51.960;8.372;2024-03-07T12:00:50;101312.00;;;13.80
20289;BMP180;10303;51.960;8.372;2024-03-07T12:03:19;101301.00;;;13.90
20289;BMP180;10303;51.960;8.372;2024-03-07T12:05:51;101302.00;;;14.00
20289;BMP180;10303;51.960;8.372;2024-03-07T12:08:18;101307.00;;;14.00
20289;BMP180;10303;51.960;8.372;2024-03-07T12:10:48;101297.00;;;14.00
20289;BMP180;10303;51.960;8.372;2024-03-07T12:13:19;101290.00;;;14.00
20289;BMP180;10303;51.960;8.372;2024-03-07T12:15:46;101292.00;;;14.00
20289;BMP180;10303;51.960;8.372;2024-03-07T12:18:13;101288.00;;;14.10
20289;BMP180;10303;51.960;8.372;2024-03-07T12:20:44;101290.00;;;14.20
20289;BMP180;10303;51.960;8.372;2024-03-07T12:23:17;101286.00;;;14.20
20289;BMP180;10303;51.960;8.372;2024-03-07T12:25:45;101274.00;;;14.20
20289;BMP180;10303;51.960;8.372;2024-03-07T12:28:13;101274.00;;;14.30
20289;BMP180;10303;51.960;8.372;2024-03-07T12:33:16;101258.00;;;14.30
20289;BMP180;10303;51.960;8.372;2024-03-07T12:35:50;101261.00;;;14.30
20289;BMP180;10303;51.960;8.372;2024-03-07T12:38:19;101256.00;;;14.20
20289;BMP180;10303;51.960;8.372;2024-03-07T12:40:47;101261.00;;;14.20
20289;BMP180;10303;51.960;8.372;2024-03-07T12:43:20;101258.00;;;14.10
20289;BMP180;10303;51.960;8.372;2024-03-07T12:45:51;101248.00;;;14.20
20289;BMP180;10303;51.960;8.372;2024-03-07T12:48:18;101242.00;;;14.30
20289;BMP180;10303;51.960;8.372;2024-03-07T12:50:48;101241.00;;;14.40
20289;BMP180;10303;51.960;8.372;2024-03-07T12:53:21;101233.00;;;14.60
20289;BMP180;10303;51.960;8.372;2024-03-07T12:55:48;101234.00;;;14.90
20289;BMP180;10303;51.960;8.372;2024-03-07T12:58:14;101238.00;;;15.20
20289;BMP180;10303;51.960;8.372;2024-03-07T13:00:41;101239.00;;;15.30
20289;BMP180;10303;51.960;8.372;2024-03-07T13:03:08;101242.00;;;15.40
20289;BMP180;10303;51.960;8.372;2024-03-07T13:05:40;101244.00;;;15.40
20289;BMP180;10303;51.960;8.372;2024-03-07T13:08:10;101237.00;;;15.30
20289;BMP180;10303;51.960;8.372;2024-03-07T13:10:47;101235.00;;;15.20
20289;BMP180;10303;51.960;8.372;2024-03-07T13:13:13;101224.00;;;15.20
20289;BMP180;10303;51.960;8.372;2024-03-07T13:15:39;101228.00;;;15.20
20289;BMP180;10303;51.960;8.372;2024-03-07T13:18:06;101231.00;;;15.20
20289;BMP180;10303;51.960;8.372;2024-03-07T13:20:33;101226.00;;;15.30
20289;BMP180;10303;51.960;8.372;2024-03-07T13:22:59;101222.00;;;15.40
20289;BMP180;10303;51.960;8.372;2024-03-07T13:25:28;101224.00;;;15.50
20289;BMP180;10303;51.960;8.372;2024-03-07T13:28:14;101209.00;;;15.50
20289;BMP180;10303;51.960;8.372;2024-03-07T13:30:48;101217.00;;;15.50
20289;BMP180;10303;51.960;8.372;2024-03-07T13:33:14;101218.00;;;15.40
20289;BMP180;10303;51.960;8.372;2024-03-07T13:35:41;101210.00;;;15.30
20289;BMP180;10303;51.960;8.372;2024-03-07T13:38:08;101203.00;;;15.20
20289;BMP180;10303;51.960;8.372;2024-03-07T13:40:34;101192.00;;;15.20
20289;BMP180;10303;51.960;8.372;2024-03-07T13:43:04;101195.00;;;15.20
20289;BMP180;10303;51.960;8.372;2024-03-07T13:45:36;101190.00;;;15.20
20289;BMP180;10303;51.960;8.372;2024-03-07T13:48:07;101178.00;;;15.20
20289;BMP180;10303;51.960;8.372;2024-03-07T13:50:35;101175.00;;;15.30
20289;BMP180;10303;51.960;8.372;2024-03-07T13:53:01;101175.00;;;15.30
20289;BMP180;10303;51.960;8.372;2024-03-07T14:13:16;101165.00;;;15.10
20289;BMP180;10303;51.960;8.372;2024-03-07T14:19:35;101150.00;;;15.00
20289;BMP180;10303;51.960;8.372;2024-03-07T14:23:23;101152.00;;;15.00
20289;BMP180;10303;51.960;8.372;2024-03-07T14:26:04;101150.00;;;14.80
20289;BMP180;10303;51.960;8.372;2024-03-07T14:31:16;101141.00;;;14.60
20289;BMP180;10303;51.960;8.372;2024-03-07T14:34:06;101140.00;;;14.50
20289;BMP180;10303;51.960;8.372;2024-03-07T14:36:41;101146.00;;;14.50
20289;BMP180;10303;51.960;8.372;2024-03-07T14:39:11;101143.00;;;14.50
20289;BMP180;10303;51.960;8.372;2024-03-07T14:41:56;101150.00;;;14.40
20289;BMP180;10303;51.960;8.372;2024-03-07T14:44:24;101146.00;;;14.40
20289;BMP180;10303;51.960;8.372;2024-03-07T14:47:03;101142.00;;;14.30
20289;BMP180;10303;51.960;8.372;2024-03-07T14:49:34;101145.00;;;14.30